Time;durP1;ratioP1;P1;durP2;ratioP2;P2;SDS_P1;SDS_P2;PMS_P1;PMS_P2;Temp;Humidity;BMP_temperature;BMP_pressure;BME280_temperature;BME280_humidity;BME280_pressure;Samples;Min_cycle;Max_cycle;Signal;HPM_P1;HPM_P2
2021/04/10 00:04:00;;;;;;;39.40;20.27;;;;;;;4.00;65.89;100252.39;3568227;80;31769;-80
2021/04/10 00:09:01;;;;;;;48.67;21.73;;;;;;;4.11;65.82;100245.92;3588997;79;98891;-80
2021/04/10 00:14:06;;;;;;;40.03;20.00;;;;;;;4.22;66.00;100242.98;3594938;80;31786;-80
2021/04/10 00:19:07;;;;;;;49.50;22.40;;;;;;;4.26;66.00;100243.91;3589626;80;98869;-80
2021/04/10 00:24:09;;;;;;;50.03;23.80;;;;;;;4.28;66.01;100253.33;3598265;80;32334;-80
2021/04/10 00:29:10;;;;;;;47.95;21.52;;;;;;;4.24;65.64;100242.88;3524242;82;98437;-80
2021/04/10 00:34:11;;;;;;;49.42;22.30;;;;;;;4.21;66.22;100246.27;3598181;80;31778;-80
2021/04/10 00:39:12;;;;;;;43.23;21.47;;;;;;;4.13;66.27;100244.45;3589869;80;98384;-80
2021/04/10 00:44:12;;;;;;;42.60;21.00;;;;;;;4.03;66.72;100248.16;3598550;80;31705;-80
2021/04/10 00:49:13;;;;;;;47.75;22.48;;;;;;;3.91;66.93;100257.13;3589053;80;98516;-80
2021/04/10 00:54:14;;;;;;;43.57;20.80;;;;;;;3.86;67.07;100250.53;3594290;80;31846;-79
2021/04/10 00:59:15;;;;;;;44.60;21.93;;;;;;;3.79;67.36;100254.37;3582548;80;98935;-79
2021/04/10 01:04:16;;;;;;;46.50;19.00;;;;;;;3.75;67.39;100248.00;3601104;80;34988;-79
2021/04/10 01:09:17;;;;;;;42.17;19.30;;;;;;;3.82;67.47;100244.16;3607039;80;98548;-79
2021/04/10 01:14:39;;;;;;;44.50;20.40;;;;;;;3.97;67.37;100248.97;3612224;80;35565;-79
2021/04/10 01:20:06;;;;;;;38.50;19.73;;;;;;;4.02;67.62;100239.22;3606645;80;98934;-78
2021/04/10 01:25:30;;;;;;;42.23;20.60;;;;;;;4.01;67.28;100236.83;3614332;80;35068;-79
2021/04/10 01:30:33;;;;;;;44.13;23.20;;;;;;;4.05;66.83;100237.17;3611487;80;34993;-78
2021/04/10 01:35:38;;;;;;;47.80;24.07;;;;;;;4.04;66.71;100225.27;3608587;80;98341;-78
2021/04/10 01:40:41;;;;;;;50.00;21.87;;;;;;;3.94;66.75;100214.23;3609877;80;35067;-79
2021/04/10 01:45:43;;;;;;;47.17;24.40;;;;;;;3.84;66.96;100216.05;3603302;80;98727;-79
2021/04/10 01:50:45;;;;;;;48.90;26.00;;;;;;;3.75;67.26;100220.79;3601983;80;35265;-79
2021/04/10 01:55:49;;;;;;;57.97;31.00;;;;;;;3.68;67.37;100221.91;3598280;79;98321;-80
2021/04/10 02:00:50;;;;;;;65.30;30.87;;;;;;;3.58;67.72;100216.08;3598644;80;36147;-80
2021/04/10 02:05:53;;;;;;;140.97;55.90;;;;;;;3.48;68.30;100218.66;3585966;79;98657;-76
2021/04/10 02:10:55;;;;;;;196.53;70.43;;;;;;;3.41;68.58;100221.69;3589210;80;35658;-79
2021/04/10 02:15:56;;;;;;;144.17;54.87;;;;;;;3.33;68.76;100228.02;3584573;79;99127;-79
2021/04/10 02:21:06;;;;;;;112.30;44.90;;;;;;;3.33;68.86;100239.67;3592542;80;35269;-79
2021/04/10 02:26:07;;;;;;;118.50;45.43;;;;;;;3.25;69.18;100243.28;3584712;80;98706;-78
2021/04/10 02:31:13;;;;;;;120.30;48.13;;;;;;;3.29;69.59;100239.33;3593611;80;35020;-78
2021/04/10 02:36:19;;;;;;;83.95;38.98;;;;;;;3.28;69.32;100239.09;3579952;79;99095;-79
2021/04/10 02:41:24;;;;;;;76.10;34.85;;;;;;;3.22;69.43;100237.72;3590653;80;26790;-79
2021/04/10 02:46:29;;;;;;;59.08;27.95;;;;;;;3.18;69.49;100238.14;3581132;81;98785;-80
2021/04/10 02:51:35;;;;;;;53.40;25.20;;;;;;;3.12;69.58;100232.67;3587752;80;35502;-78
2021/04/10 02:56:40;;;;;;;51.68;25.62;;;;;;;3.02;69.35;100224.91;3582737;80;98621;-79
2021/04/10 03:01:41;;;;;;;53.10;26.43;;;;;;;2.99;69.42;100231.00;3591759;80;35646;-78
2021/04/10 03:06:44;;;;;;;51.07;24.57;;;;;;;2.92;69.40;100223.39;3586551;80;98587;-78
2021/04/10 03:11:46;;;;;;;49.97;23.63;;;;;;;2.76;69.88;100225.10;3589951;81;35009;-78
2021/04/10 03:16:47;;;;;;;43.50;21.33;;;;;;;2.67;70.34;100233.08;3588485;77;98698;-79
2021/04/10 03:21:48;;;;;;;47.13;23.87;;;;;;;2.69;70.36;100226.75;3592277;80;35019;-78
2021/04/10 03:26:49;;;;;;;53.63;27.40;;;;;;;2.72;70.93;100224.72;3581810;80;98676;-78
2021/04/10 03:31:51;;;;;;;50.67;24.80;;;;;;;2.84;70.91;100246.55;3594982;80;35940;-78
2021/04/10 03:36:53;;;;;;;53.83;26.87;;;;;;;2.84;71.19;100250.05;3589041;80;98625;-77
2021/04/10 03:41:53;;;;;;;53.50;30.53;;;;;;;2.87;71.40;100250.77;3595633;80;35072;-79
2021/04/10 03:46:54;;;;;;;53.90;26.13;;;;;;;2.88;71.61;100245.56;3583511;80;98929;-78
2021/04/10 03:51:55;;;;;;;49.30;23.07;;;;;;;2.88;71.74;100246.91;3597591;80;35021;-79
2021/04/10 03:56:56;;;;;;;46.03;23.47;;;;;;;2.92;71.54;100247.05;3581796;77;98802;-78
2021/04/10 04:01:57;;;;;;;53.07;25.40;;;;;;;2.99;71.73;100252.19;3591918;81;35443;-79
2021/04/10 04:06:58;;;;;;;45.10;23.37;;;;;;;3.04;71.77;100237.59;3588307;81;98334;-79
2021/04/10 04:11:59;;;;;;;51.00;21.77;;;;;;;3.09;72.02;100246.91;3586418;81;35140;-79
2021/04/10 04:17:00;;;;;;;43.87;22.93;;;;;;;3.09;71.91;100240.93;3580073;80;99052;-79
2021/04/10 04:22:02;;;;;;;53.30;24.82;;;;;;;3.16;71.61;100230.30;3590348;80;35025;-79
2021/04/10 04:27:04;;;;;;;46.90;23.93;;;;;;;3.29;71.70;100229.80;3583336;79;98365;-79
2021/04/10 04:32:05;;;;;;;50.87;23.37;;;;;;;3.47;71.66;100231.23;3592810;80;32695;-79
2021/04/10 04:37:06;;;;;;;56.03;27.33;;;;;;;3.54;71.36;100231.48;3583711;80;98707;-79
2021/04/10 04:42:07;;;;;;;53.23;26.52;;;;;;;3.66;71.40;100243.20;3593881;80;33870;-79
2021/04/10 04:47:08;;;;;;;52.77;26.30;;;;;;;3.76;71.31;100234.63;3579896;80;98756;-79
2021/04/10 04:52:09;;;;;;;54.17;28.43;;;;;;;3.82;71.21;100229.19;3591807;81;32714;-79
2021/04/10 04:57:10;;;;;;;49.00;24.93;;;;;;;3.84;71.11;100232.94;3583069;80;98683;-79
2021/04/10 05:02:11;;;;;;;45.93;23.57;;;;;;;3.84;71.48;100228.30;3598973;80;32704;-79
2021/04/10 05:07:12;;;;;;;49.57;24.40;;;;;;;3.73;71.28;100218.17;3597561;80;98528;-79
2021/04/10 05:12:13;;;;;;;51.97;24.33;;;;;;;3.99;71.28;100256.22;3605733;80;33247;-79
2021/04/10 05:17:14;;;;;;;49.48;24.98;;;;;;;4.08;71.49;100263.73;3604826;79;98675;-80
2021/04/10 05:22:15;;;;;;;44.20;22.70;;;;;;;4.18;71.36;100266.03;3612397;80;27474;-79
2021/04/10 05:27:15;;;;;;;46.93;23.17;;;;;;;4.31;71.59;100266.84;3604391;80;98531;-79
2021/04/10 05:32:16;;;;;;;44.97;22.60;;;;;;;4.43;71.66;100275.02;3612941;80;26352;-79
2021/04/10 05:37:17;;;;;;;46.03;24.30;;;;;;;4.59;71.45;100273.99;3598496;80;98680;-79
2021/04/10 05:42:17;;;;;;;42.75;22.10;;;;;;;4.76;71.65;100273.75;3606343;80;26132;-79
2021/04/10 05:47:18;;;;;;;48.57;24.17;;;;;;;4.95;71.41;100278.63;3600516;79;98270;-79
2021/04/10 05:52:19;;;;;;;42.33;22.60;;;;;;;5.14;71.39;100285.66;3611366;80;26667;-79
2021/04/10 05:57:20;;;;;;;41.63;20.70;;;;;;;5.33;70.93;100285.82;3600613;79;98726;-79
2021/04/10 06:02:21;;;;;;;41.93;21.27;;;;;;;5.54;70.26;100291.34;3611898;80;34265;-79
2021/04/10 06:07:22;;;;;;;47.03;23.87;;;;;;;5.74;70.17;100301.84;3590617;80;98665;-79
2021/04/10 06:12:22;;;;;;;42.93;22.93;;;;;;;5.93;69.47;100302.81;3575614;80;33392;-80
2021/04/10 06:17:23;;;;;;;44.70;24.17;;;;;;;6.13;69.02;100314.66;3571642;81;98783;-80
2021/04/10 06:22:24;;;;;;;43.00;22.63;;;;;;;6.32;68.64;100318.30;3583759;81;31641;-80
2021/04/10 06:27:24;;;;;;;45.63;23.55;;;;;;;6.51;68.11;100329.35;3576398;79;98745;-80
2021/04/10 06:32:25;;;;;;;46.53;23.03;;;;;;;6.70;67.50;100338.22;3578783;80;31537;-79
2021/04/10 06:37:26;;;;;;;39.57;19.53;;;;;;;6.86;66.86;100343.09;3573641;80;98518;-79
2021/04/10 06:42:28;;;;;;;40.33;19.80;;;;;;;7.04;66.92;100349.80;3579442;80;31786;-79
2021/04/10 06:47:33;;;;;;;40.20;21.60;;;;;;;7.19;66.72;100358.56;3570603;79;99092;-80
2021/04/10 06:52:41;;;;;;;40.67;20.97;;;;;;;7.34;67.18;100350.31;3577452;81;31798;-79
2021/04/10 06:58:05;;;;;;;34.87;19.20;;;;;;;7.49;66.57;100352.22;3571149;79;98574;-78
2021/04/10 07:03:05;;;;;;;33.60;18.67;;;;;;;7.60;66.69;100342.30;3582685;81;31768;-80
2021/04/10 07:08:07;;;;;;;40.17;20.33;;;;;;;7.77;66.00;100371.19;3578460;80;98642;-79
2021/04/10 07:13:08;;;;;;;34.67;18.27;;;;;;;7.84;65.35;100388.58;3582101;80;31748;-79
2021/04/10 07:18:09;;;;;;;32.37;17.37;;;;;;;7.91;65.55;100401.64;3577054;79;98341;-79
2021/04/10 07:23:13;;;;;;;36.13;19.10;;;;;;;7.95;66.04;100396.45;3578426;81;32415;-80
2021/04/10 07:28:32;;;;;;;32.37;15.90;;;;;;;7.96;66.35;100389.03;3579380;78;98642;-80
2021/04/10 07:33:40;;;;;;;30.93;15.93;;;;;;;7.99;66.75;100384.19;3587566;81;27954;-79
2021/04/10 07:38:43;;;;;;;33.80;17.10;;;;;;;8.08;66.61;100395.14;3580555;80;98635;-78
2021/04/10 07:43:45;;;;;;;33.83;16.60;;;;;;;8.14;66.98;100403.88;3584270;81;26915;-78
2021/04/10 07:49:13;;;;;;;29.27;14.70;;;;;;;8.17;66.93;100403.95;3573953;79;98639;-80
2021/04/10 07:54:41;;;;;;;26.40;13.73;;;;;;;8.22;66.61;100413.28;3580535;80;31756;-80
2021/04/10 07:59:59;;;;;;;24.90;13.38;;;;;;;8.25;67.17;100435.88;3580425;77;98436;-80
2021/04/10 08:04:58;;;;;;;24.00;12.40;;;;;;;8.31;67.37;100445.97;3585296;81;31793;-79
2021/04/10 08:10:08;;;;;;;26.82;13.60;;;;;;;8.40;67.31;100456.92;3586265;79;98348;-79
2021/04/10 08:15:11;;;;;;;24.17;12.60;;;;;;;8.58;68.50;100453.17;3595883;80;32286;-80
2021/04/10 08:20:28;;;;;;;25.93;12.57;;;;;;;8.94;69.15;100463.06;3588543;79;98270;-80
2021/04/10 08:25:32;;;;;;;26.68;14.85;;;;;;;9.18;69.01;100468.78;3593083;79;98709;-80
2021/04/10 08:30:32;;;;;;;26.23;13.80;;;;;;;9.53;69.01;100468.78;3594108;81;32092;-80
2021/04/10 08:35:34;;;;;;;29.70;15.73;;;;;;;9.77;68.39;100472.47;3581147;81;104735;-78
2021/04/10 08:40:35;;;;;;;25.57;13.50;;;;;;;9.90;68.32;100480.73;3589103;81;32097;-79
2021/04/10 08:45:37;;;;;;;25.47;15.47;;;;;;;9.91;68.09;100479.56;3560741;80;98844;-80
2021/04/10 08:50:39;;;;;;;27.67;14.03;;;;;;;9.96;68.18;100482.57;3582971;81;32839;-80
2021/04/10 08:55:41;;;;;;;22.27;13.23;;;;;;;10.03;68.24;100484.84;3577024;80;98988;-79
2021/04/10 09:00:42;;;;;;;22.77;13.70;;;;;;;9.96;68.38;100489.44;3579646;81;25987;-79
2021/04/10 09:05:52;;;;;;;26.95;14.35;;;;;;;9.87;68.67;100477.94;3580700;80;99327;-79
2021/04/10 09:10:59;;;;;;;25.67;13.73;;;;;;;9.79;69.11;100472.92;3584758;81;31329;-80
2021/04/10 09:16:28;;;;;;;26.07;13.98;;;;;;;9.65;69.74;100471.31;3598401;80;98194;-80
2021/04/10 09:21:55;;;;;;;24.47;14.07;;;;;;;9.44;70.06;100468.23;3603433;80;26674;-79
2021/04/10 09:27:08;;;;;;;25.93;16.13;;;;;;;9.31;70.83;100463.30;3581507;80;98624;-80
2021/04/10 09:32:10;;;;;;;24.33;13.97;;;;;;;9.19;71.51;100457.44;3589385;81;31756;-79
2021/04/10 09:37:11;;;;;;;25.50;14.33;;;;;;;9.10;72.38;100443.75;3580535;78;98707;-80
2021/04/10 09:42:33;;;;;;;23.57;13.90;;;;;;;9.09;72.84;100447.06;3589731;81;32337;-80
2021/04/10 09:48:01;;;;;;;24.40;14.33;;;;;;;9.22;73.37;100457.28;3585237;80;99288;-79
2021/04/10 09:53:12;;;;;;;26.97;15.17;;;;;;;9.33;73.41;100459.03;3586914;81;32601;-79
2021/04/10 09:58:16;;;;;;;25.10;15.40;;;;;;;9.45;73.33;100451.18;3583100;80;98549;-80
2021/04/10 10:03:24;;;;;;;24.00;15.03;;;;;;;9.42;73.31;100437.60;3586331;80;30393;-80
2021/04/10 10:08:32;;;;;;;28.30;16.90;;;;;;;9.39;73.17;100441.67;3568685;79;99038;-79
2021/04/10 10:13:35;;;;;;;25.93;15.63;;;;;;;9.27;73.56;100441.27;3551413;82;32650;-79
2021/04/10 10:18:40;;;;;;;26.10;15.53;;;;;;;9.26;73.64;100441.07;3541272;80;98648;-80
2021/04/10 10:23:52;;;;;;;25.23;14.73;;;;;;;9.20;74.04;100446.66;3552104;82;32455;-80
2021/04/10 10:29:05;;;;;;;25.17;16.17;;;;;;;9.13;73.83;100457.53;3543050;81;98572;-79
2021/04/10 10:34:10;;;;;;;24.53;16.33;;;;;;;9.02;74.33;100463.98;3550505;82;32310;-79
2021/04/10 10:39:35;;;;;;;25.13;15.93;;;;;;;8.90;74.60;100469.05;3534495;82;98729;-79
2021/04/10 10:44:36;;;;;;;23.23;14.77;;;;;;;8.83;75.06;100472.28;3545341;82;31824;-80
2021/04/10 10:49:37;;;;;;;23.23;15.27;;;;;;;8.95;75.85;100471.50;3538521;81;98636;-80
2021/04/10 10:54:39;;;;;;;21.45;14.05;;;;;;;9.11;75.89;100488.66;3549545;82;31851;-80
2021/04/10 10:59:40;;;;;;;24.67;15.23;;;;;;;9.25;75.48;100501.84;3538458;82;98758;-80
2021/04/10 11:04:42;;;;;;;24.87;16.37;;;;;;;9.42;75.61;100504.90;3543557;82;32335;-79
2021/04/10 11:09:43;;;;;;;24.37;15.97;;;;;;;9.60;75.07;100514.22;3561505;81;99279;-80
2021/04/10 11:14:47;;;;;;;26.00;17.33;;;;;;;9.69;74.78;100520.83;3575905;81;31797;-80
2021/04/10 11:19:48;;;;;;;26.65;16.50;;;;;;;9.73;74.62;100526.62;3574606;81;98586;-80
2021/04/10 11:24:51;;;;;;;30.27;17.60;;;;;;;9.67;74.47;100525.91;3579886;79;31771;-80
2021/04/10 11:29:59;;;;;;;24.50;16.20;;;;;;;9.59;74.54;100529.13;3567615;80;98895;-79
2021/04/10 11:35:05;;;;;;;25.63;17.50;;;;;;;9.45;75.06;100532.22;3588155;81;31807;-80
2021/04/10 11:40:10;;;;;;;29.92;17.57;;;;;;;9.43;75.15;100531.80;3576859;80;98374;-80
2021/04/10 11:45:34;;;;;;;24.40;14.87;;;;;;;9.34;75.74;100518.31;3587909;81;32361;-80
2021/04/10 11:50:45;;;;;;;22.53;14.70;;;;;;;9.44;75.80;100532.02;3584404;81;25984;-81
2021/04/10 11:55:48;;;;;;;21.65;14.50;;;;;;;9.63;75.74;100545.09;3580295;79;98947;-80
2021/04/10 12:00:48;;;;;;;25.97;15.87;;;;;;;9.81;75.63;100542.64;3594739;80;31709;-80
2021/04/10 12:05:49;;;;;;;24.97;14.80;;;;;;;9.92;75.40;100546.35;3585684;79;98844;-80
2021/04/10 12:10:58;;;;;;;26.60;15.87;;;;;;;9.97;74.76;100542.69;3570401;80;32201;-80
2021/04/10 12:16:01;;;;;;;26.57;14.93;;;;;;;9.92;74.03;100533.38;3556968;81;98999;-79
2021/04/10 12:21:02;;;;;;;24.57;16.33;;;;;;;9.93;74.18;100541.06;3513806;82;32335;-79
2021/04/10 12:26:06;;;;;;;24.10;17.07;;;;;;;9.76;74.20;100544.33;3497973;81;99051;-80
2021/04/10 12:31:10;;;;;;;25.37;17.00;;;;;;;9.60;74.73;100548.56;3493010;83;32418;-79
2021/04/10 12:36:11;;;;;;;22.37;14.57;;;;;;;9.73;75.35;100551.92;3458702;84;98891;-79
2021/04/10 12:41:12;;;;;;;25.10;15.80;;;;;;;9.85;74.52;100554.47;3530627;82;33117;-79
2021/04/10 12:46:13;;;;;;;22.87;14.40;;;;;;;9.86;74.98;100560.20;3540498;81;98798;-79
2021/04/10 12:51:14;;;;;;;30.17;17.53;;;;;;;9.92;74.48;100562.25;3547830;82;31772;-80
2021/04/10 12:56:20;;;;;;;28.23;16.97;;;;;;;9.99;74.03;100569.82;3539845;82;98838;-79
2021/04/10 13:01:18;;;;;;;25.90;16.70;;;;;;;10.11;73.25;100578.70;3547980;82;31803;-79
2021/04/10 13:06:18;;;;;;;25.27;16.63;;;;;;;10.02;73.26;100583.62;3534556;82;98845;-79
2021/04/10 13:11:19;;;;;;;28.83;17.50;;;;;;;10.11;73.76;100580.07;3546475;81;32273;-79
2021/04/10 13:16:20;;;;;;;25.20;16.33;;;;;;;10.31;74.05;100585.66;3545101;81;98879;-79
2021/04/10 13:21:21;;;;;;;23.80;16.70;;;;;;;10.32;73.47;100587.27;3540720;82;31843;-79
2021/04/10 13:26:23;;;;;;;29.60;17.90;;;;;;;10.32;73.32;100583.70;3538312;82;98748;-79
2021/04/10 13:31:24;;;;;;;27.57;18.10;;;;;;;10.40;73.44;100589.51;3544733;82;31713;-78
2021/04/10 13:36:25;;;;;;;26.00;17.03;;;;;;;10.34;72.56;100594.55;3532792;82;98998;-79
2021/04/10 13:41:29;;;;;;;23.53;16.40;;;;;;;10.28;72.30;100595.23;3540521;82;32270;-80
2021/04/10 13:46:31;;;;;;;29.27;18.37;;;;;;;10.21;72.23;100599.27;3533173;82;98818;-79
2021/04/10 13:51:32;;;;;;;29.43;18.20;;;;;;;10.26;72.64;100603.08;3549976;81;32330;-80
2021/04/10 13:56:33;;;;;;;22.98;15.43;;;;;;;10.26;72.43;100606.60;3541828;82;99056;-79
2021/04/10 14:01:34;;;;;;;23.57;15.33;;;;;;;10.37;72.58;100596.55;3548835;82;31789;-78
2021/04/10 14:06:35;;;;;;;25.87;17.43;;;;;;;10.53;72.16;100595.80;3543232;81;98967;-80
2021/04/10 14:11:36;;;;;;;28.00;17.93;;;;;;;10.78;71.31;100593.37;3569305;81;32195;-80
2021/04/10 14:16:37;;;;;;;28.33;22.57;;;;;;;10.68;70.81;100592.67;3570211;81;98946;-79
2021/04/10 14:21:37;;;;;;;26.87;18.97;;;;;;;10.65;71.04;100592.84;3579083;81;32079;-80
2021/04/10 14:26:38;;;;;;;26.47;17.50;;;;;;;10.64;71.20;100601.46;3569433;81;98977;-80
2021/04/10 14:31:39;;;;;;;31.10;20.52;;;;;;;10.71;71.08;100601.55;3578390;81;31746;-80
2021/04/10 14:36:40;;;;;;;30.57;21.53;;;;;;;10.69;71.36;100603.28;3585431;80;98699;-81
2021/04/10 14:41:40;;;;;;;28.30;17.83;;;;;;;10.62;70.84;100607.90;3586439;80;35703;-81
2021/04/10 14:46:41;;;;;;;32.30;21.83;;;;;;;10.57;71.16;100611.00;3577159;80;99041;-80
2021/04/10 14:51:42;;;;;;;26.10;17.33;;;;;;;10.55;71.05;100615.50;3585755;81;35217;-82
2021/04/10 14:56:43;;;;;;;29.83;18.07;;;;;;;10.57;70.94;100615.12;3580396;80;98822;-81
2021/04/10 15:01:43;;;;;;;24.37;16.97;;;;;;;10.54;70.81;100609.79;3587868;80;35029;-82
2021/04/10 15:06:44;;;;;;;30.70;20.45;;;;;;;10.45;70.86;100618.88;3572828;80;99336;-81
2021/04/10 15:11:45;;;;;;;41.90;25.33;;;;;;;10.40;71.32;100626.65;3561769;81;26170;-81
2021/04/10 15:16:46;;;;;;;28.40;17.53;;;;;;;10.35;71.64;100629.75;3535029;82;99009;-81
2021/04/10 15:21:46;;;;;;;24.23;16.93;;;;;;;10.31;72.36;100624.16;3548111;82;32726;-81
2021/04/10 15:26:47;;;;;;;24.57;15.87;;;;;;;10.38;72.60;100625.67;3537986;82;99130;-81
2021/04/10 15:31:53;;;;;;;32.03;20.00;;;;;;;10.54;72.76;100630.42;3540781;82;33929;-81
2021/04/10 15:36:54;;;;;;;27.20;16.90;;;;;;;10.74;72.39;100631.87;3531093;82;98724;-80
2021/04/10 15:41:55;;;;;;;28.83;17.17;;;;;;;10.91;72.04;100634.66;3540286;82;32927;-81
2021/04/10 15:46:55;;;;;;;25.10;16.67;;;;;;;10.92;71.72;100644.50;3537132;82;98688;-82
2021/04/10 15:51:56;;;;;;;27.77;18.10;;;;;;;10.98;71.42;100645.76;3546126;82;32788;-81
2021/04/10 15:56:57;;;;;;;23.60;16.60;;;;;;;10.98;71.19;100643.00;3532497;82;99008;-81
2021/04/10 16:01:58;;;;;;;24.73;17.40;;;;;;;10.91;71.00;100642.32;3542154;82;32700;-82
2021/04/10 16:06:59;;;;;;;78.20;37.50;;;;;;;10.82;70.90;100639.08;3539287;81;99213;-82
2021/04/10 16:11:59;;;;;;;26.33;18.20;;;;;;;10.69;70.97;100632.19;3556267;81;33178;-81
2021/04/10 16:17:00;;;;;;;34.00;19.42;;;;;;;10.60;70.93;100633.64;3576848;80;98989;-82
2021/04/10 16:22:01;;;;;;;28.67;18.07;;;;;;;10.51;70.84;100638.04;3571022;81;26665;-82
2021/04/10 16:27:02;;;;;;;33.83;18.93;;;;;;;10.50;71.04;100633.70;3579082;81;98917;-82
2021/04/10 16:32:03;;;;;;;29.33;18.83;;;;;;;10.34;71.10;100626.19;3574141;81;25916;-81
2021/04/10 16:37:04;;;;;;;30.97;17.67;;;;;;;10.18;71.23;100631.62;3578870;81;99047;-82
2021/04/10 16:42:06;;;;;;;30.43;18.23;;;;;;;10.14;71.28;100630.79;3581648;81;26663;-82
2021/04/10 16:47:07;;;;;;;28.47;16.93;;;;;;;10.08;71.65;100637.77;3575939;81;99366;-81
2021/04/10 16:52:07;;;;;;;31.17;18.27;;;;;;;10.04;72.34;100642.41;3581222;81;26492;-81
2021/04/10 16:57:09;;;;;;;30.17;18.37;;;;;;;10.07;72.82;100640.28;3579087;81;98963;-81
2021/04/10 17:02:13;;;;;;;31.25;20.68;;;;;;;10.11;72.90;100642.52;3571965;81;26305;-81
2021/04/10 17:07:13;;;;;;;33.53;22.95;;;;;;;10.22;72.81;100644.85;3563592;80;98959;-79
2021/04/10 17:12:13;;;;;;;34.90;22.00;;;;;;;10.28;72.47;100649.68;3565555;81;26779;-80
2021/04/10 17:17:15;;;;;;;33.20;22.23;;;;;;;10.19;72.33;100656.01;3531524;82;98930;-81
2021/04/10 17:22:16;;;;;;;35.07;23.33;;;;;;;10.08;72.28;100658.39;3534319;82;25999;-80
2021/04/10 17:27:16;;;;;;;34.40;22.47;;;;;;;9.82;72.48;100665.17;3507744;82;98623;-80
2021/04/10 17:32:20;;;;;;;40.73;25.60;;;;;;;9.82;72.48;100665.17;3536901;82;26795;-80
2021/04/10 17:37:22;;;;;;;38.37;24.43;;;;;;;9.67;72.67;100657.25;3530218;82;98763;-80
2021/04/10 17:42:23;;;;;;;34.03;23.33;;;;;;;9.51;72.94;100662.05;3543958;82;27834;-81
2021/04/10 17:47:24;;;;;;;40.93;26.33;;;;;;;9.28;73.12;100664.53;3537762;82;98600;-81
2021/04/10 17:52:25;;;;;;;58.67;35.80;;;;;;;9.02;73.52;100667.94;3551109;82;26564;-81
2021/04/10 17:57:26;;;;;;;68.90;37.50;;;;;;;8.80;73.99;100658.22;3534628;82;98226;-81
2021/04/10 18:02:26;;;;;;;46.00;27.87;;;;;;;8.58;74.60;100663.83;3542775;82;26045;-80
2021/04/10 18:07:27;;;;;;;46.20;27.43;;;;;;;8.45;75.20;100672.53;3539505;82;98544;-81
2021/04/10 18:12:28;;;;;;;44.47;26.00;;;;;;;8.42;75.45;100668.55;3561264;81;26488;-80
2021/04/10 18:17:29;;;;;;;55.05;32.42;;;;;;;8.49;75.77;100679.68;3552913;81;98925;-79
2021/04/10 18:22:29;;;;;;;42.43;28.50;;;;;;;8.66;75.54;100686.70;3572630;81;33364;-80
2021/04/10 18:27:30;;;;;;;59.13;35.33;;;;;;;8.50;75.16;100679.11;3571674;81;98504;-80
2021/04/10 18:32:31;;;;;;;52.37;34.17;;;;;;;8.50;75.16;100679.11;3574885;81;35500;-79
2021/04/10 18:37:33;;;;;;;49.40;30.70;;;;;;;8.45;74.67;100702.70;3544316;81;101385;-80
2021/04/10 18:42:35;;;;;;;43.63;26.60;;;;;;;8.17;75.01;100700.58;3573668;81;33174;-81
2021/04/10 18:47:36;;;;;;;39.63;25.03;;;;;;;7.91;75.32;100707.18;3571715;81;97865;-81
2021/04/10 18:52:37;;;;;;;41.83;26.07;;;;;;;7.76;75.74;100710.12;3564677;81;33990;-80
2021/04/10 18:57:38;;;;;;;38.80;26.07;;;;;;;7.62;76.17;100704.81;3560878;81;98504;-80
2021/04/10 19:02:40;;;;;;;45.47;26.97;;;;;;;7.44;76.62;100706.28;3565291;81;33386;-81
2021/04/10 19:07:40;;;;;;;45.73;26.50;;;;;;;7.32;77.25;100699.50;3563880;81;98768;-80
2021/04/10 19:12:41;;;;;;;37.30;23.43;;;;;;;7.18;78.02;100705.36;3569899;80;33414;-81
2021/04/10 19:17:43;;;;;;;36.50;22.07;;;;;;;7.17;78.70;100694.75;3590836;80;98859;-80
2021/04/10 19:22:44;;;;;;;34.00;20.83;;;;;;;7.21;79.06;100692.33;3594696;80;33710;-81
2021/04/10 19:27:44;;;;;;;38.90;24.87;;;;;;;7.28;79.52;100688.45;3592271;80;98970;-81
2021/04/10 19:32:45;;;;;;;38.13;24.73;;;;;;;7.35;79.93;100694.11;3603314;80;32448;-80
2021/04/10 19:37:46;;;;;;;36.07;22.63;;;;;;;7.34;80.12;100701.30;3567535;80;98571;-80
2021/04/10 19:42:48;;;;;;;35.15;21.93;;;;;;;7.22;80.64;100690.41;3594532;80;32207;-81
2021/04/10 19:47:49;;;;;;;38.47;24.03;;;;;;;7.14;80.96;100698.98;3592087;80;98557;-80
2021/04/10 19:52:50;;;;;;;41.08;26.95;;;;;;;7.10;81.18;100705.51;3597227;80;31820;-80
2021/04/10 19:57:52;;;;;;;59.73;31.47;;;;;;;7.02;81.57;100711.90;3594535;80;98750;-81
2021/04/10 20:02:53;;;;;;;53.47;28.93;;;;;;;6.96;81.96;100711.36;3608028;80;32193;-79
2021/04/10 20:07:54;;;;;;;46.87;27.10;;;;;;;6.95;82.20;100704.86;3591980;80;98623;-80
2021/04/10 20:12:55;;;;;;;35.40;24.13;;;;;;;7.00;82.27;100707.36;3584313;80;32019;-80
2021/04/10 20:17:59;;;;;;;41.47;24.90;;;;;;;7.08;82.66;100704.48;3571617;81;98781;-81
2021/04/10 20:22:59;;;;;;;45.10;27.53;;;;;;;7.14;82.42;100714.03;3575434;81;31817;-81
2021/04/10 20:28:00;;;;;;;39.10;23.60;;;;;;;7.22;82.55;100710.38;3573477;80;98718;-80
2021/04/10 20:33:01;;;;;;;42.27;25.67;;;;;;;7.14;82.76;100707.19;3573786;81;32197;-80
2021/04/10 20:38:03;;;;;;;38.80;24.60;;;;;;;7.11;82.68;100703.80;3576797;81;98776;-79
2021/04/10 20:43:04;;;;;;;44.97;26.80;;;;;;;7.15;82.15;100705.27;3569587;81;31855;-78
2021/04/10 20:48:06;;;;;;;42.80;25.60;;;;;;;7.12;82.05;100713.59;3577605;81;98602;-81
2021/04/10 20:53:07;;;;;;;40.83;23.73;;;;;;;7.04;82.25;100709.63;3585645;80;32208;-80
2021/04/10 20:58:08;;;;;;;37.77;22.63;;;;;;;6.99;82.19;100711.23;3574736;81;98794;-81
2021/04/10 21:03:18;;;;;;;41.87;24.07;;;;;;;7.05;81.96;100699.72;3586609;81;31752;-79
2021/04/10 21:08:19;;;;;;;39.53;23.80;;;;;;;7.18;81.84;100702.63;3576754;81;98867;-80
2021/04/10 21:13:22;;;;;;;44.37;26.90;;;;;;;7.18;81.71;100703.19;3567259;81;31814;-81
2021/04/10 21:18:23;;;;;;;48.67;29.13;;;;;;;7.28;81.48;100703.50;3533147;82;98723;-79
2021/04/10 21:23:33;;;;;;;60.33;35.60;;;;;;;7.36;81.01;100702.55;3535179;82;32109;-80
2021/04/10 21:28:34;;;;;;;69.55;40.15;;;;;;;7.42;80.54;100707.22;3539758;82;99472;-80
2021/04/10 21:33:43;;;;;;;71.77;40.50;;;;;;;7.28;80.63;100709.54;3542748;82;32304;-81
2021/04/10 21:38:44;;;;;;;56.88;33.90;;;;;;;7.02;80.97;100718.18;3535679;82;98596;-80
2021/04/10 21:43:45;;;;;;;60.23;34.27;;;;;;;6.83;81.46;100715.83;3546187;82;31758;-81
2021/04/10 21:48:46;;;;;;;52.87;32.30;;;;;;;6.75;81.55;100707.17;3525101;82;98375;-80
2021/04/10 21:53:47;;;;;;;52.57;31.63;;;;;;;6.70;81.42;100697.27;3541487;82;31911;-78
2021/04/10 21:58:48;;;;;;;48.53;29.40;;;;;;;6.52;82.70;100691.02;3530944;82;98451;-80
2021/04/10 22:03:53;;;;;;;44.57;25.47;;;;;;;6.43;83.38;100692.52;3538970;82;32929;-79
2021/04/10 22:08:56;;;;;;;41.27;23.90;;;;;;;6.41;84.36;100676.22;3532402;82;98708;-79
2021/04/10 22:13:58;;;;;;;39.50;23.10;;;;;;;6.41;85.43;100670.20;3538305;82;32259;-80
2021/04/10 22:19:00;;;;;;;41.97;24.33;;;;;;;6.50;84.68;100665.39;3536787;82;98448;-80
2021/04/10 22:24:02;;;;;;;38.57;23.57;;;;;;;6.57;84.36;100669.73;3533489;82;31740;-80
2021/04/10 22:29:06;;;;;;;40.67;24.02;;;;;;;6.59;84.54;100671.53;3528054;82;98336;-78
2021/04/10 22:34:07;;;;;;;52.50;24.73;;;;;;;6.58;84.38;100665.84;3537923;82;32327;-77
2021/04/10 22:39:09;;;;;;;41.08;25.32;;;;;;;6.51;84.20;100665.64;3528991;82;98460;-79
2021/04/10 22:44:12;;;;;;;44.53;24.70;;;;;;;6.46;84.15;100660.96;3543129;82;31699;-80
2021/04/10 22:49:12;;;;;;;46.05;25.72;;;;;;;6.39;83.91;100663.48;3536851;82;98885;-80
2021/04/10 22:54:13;;;;;;;50.70;27.45;;;;;;;6.42;83.59;100658.12;3545063;82;31700;-80
2021/04/10 22:59:14;;;;;;;43.10;26.15;;;;;;;6.33;84.09;100659.39;3540359;82;98379;-79
2021/04/10 23:04:14;;;;;;;45.73;25.83;;;;;;;6.40;83.79;100659.60;3545015;82;32264;-80
2021/04/10 23:09:15;;;;;;;51.97;28.67;;;;;;;6.33;84.07;100651.97;3532116;82;98394;-79